sensor_id;sensor_type;location;lat;lon;timestamp;temperature;humidity
6244;DHT22;3155;49.940;8.450;2022-09-09T00:03:29;14.70;99.90
6244;DHT22;3155;49.940;8.450;2022-09-09T00:09:30;14.50;99.90
6244;DHT22;3155;49.940;8.450;2022-09-09T00:14:42;14.30;99.90
6244;DHT22;3155;49.940;8.450;2022-09-09T00:20:32;14.10;99.90
6244;DHT22;3155;49.940;8.450;2022-09-09T00:23:14;14.10;99.90
6244;DHT22;3155;49.940;8.450;2022-09-09T00:26:09;14.00;99.90
6244;DHT22;3155;49.940;8.450;2022-09-09T00:31:36;13.90;99.90
6244;DHT22;3155;49.940;8.450;2022-09-09T00:34:12;13.80;99.90
6244;DHT22;3155;49.940;8.450;2022-09-09T00:36:41;13.80;99.90
6244;DHT22;3155;49.940;8.450;2022-09-09T00:39:19;13.80;99.90
6244;DHT22;3155;49.940;8.450;2022-09-09T00:45:03;13.70;99.90
6244;DHT22;3155;49.940;8.450;2022-09-09T00:47:49;13.70;99.90
6244;DHT22;3155;49.940;8.450;2022-09-09T00:50:36;13.70;99.90
6244;DHT22;3155;49.940;8.450;2022-09-09T00:53:28;13.70;99.90
6244;DHT22;3155;49.940;8.450;2022-09-09T00:58:29;13.70;99.90
6244;DHT22;3155;49.940;8.450;2022-09-09T01:01:10;13.60;99.90
6244;DHT22;3155;49.940;8.450;2022-09-09T01:03:55;13.60;99.90
6244;DHT22;3155;49.940;8.450;2022-09-09T01:06:33;13.60;99.90
6244;DHT22;3155;49.940;8.450;2022-09-09T01:17:23;13.50;99.90
6244;DHT22;3155;49.940;8.450;2022-09-09T01:20:12;13.50;99.90
6244;DHT22;3155;49.940;8.450;2022-09-09T01:28:33;13.20;99.90
6244;DHT22;3155;49.940;8.450;2022-09-09T01:31:04;13.20;99.90
6244;DHT22;3155;49.940;8.450;2022-09-09T01:33:32;13.10;99.90
6244;DHT22;3155;49.940;8.450;2022-09-09T01:36:09;13.10;99.90
6244;DHT22;3155;49.940;8.450;2022-09-09T01:38:37;13.00;99.90
6244;DHT22;3155;49.940;8.450;2022-09-09T01:41:04;13.00;99.90
6244;DHT22;3155;49.940;8.450;2022-09-09T01:43:31;13.00;99.90
6244;DHT22;3155;49.940;8.450;2022-09-09T01:46:01;13.00;99.90
6244;DHT22;3155;49.940;8.450;2022-09-09T01:48:29;12.90;99.90
6244;DHT22;3155;49.940;8.450;2022-09-09T01:50:56;13.00;99.90
6244;DHT22;3155;49.940;8.450;2022-09-09T01:53:23;12.90;99.90
6244;DHT22;3155;49.940;8.450;2022-09-09T01:56:28;12.90;99.90
6244;DHT22;3155;49.940;8.450;2022-09-09T01:59:03;12.80;99.90
6244;DHT22;3155;49.940;8.450;2022-09-09T02:04:52;12.80;99.90
6244;DHT22;3155;49.940;8.450;2022-09-09T02:10:58;12.70;99.90
6244;DHT22;3155;49.940;8.450;2022-09-09T02:13:18;12.70;99.90
6244;DHT22;3155;49.940;8.450;2022-09-09T02:15:52;12.80;99.90
6244;DHT22;3155;49.940;8.450;2022-09-09T02:18:48;12.80;99.90
6244;DHT22;3155;49.940;8.450;2022-09-09T02:21:18;12.90;99.90
6244;DHT22;3155;49.940;8.450;2022-09-09T02:23:48;13.00;99.90
6244;DHT22;3155;49.940;8.450;2022-09-09T02:26:17;13.00;99.90
6244;DHT22;3155;49.940;8.450;2022-09-09T02:28:49;13.10;99.90
6244;DHT22;3155;49.940;8.450;2022-09-09T02:31:19;13.20;99.90
6244;DHT22;3155;49.940;8.450;2022-09-09T02:33:52;13.20;99.90
6244;DHT22;3155;49.940;8.450;2022-09-09T02:36:23;13.30;99.90
6244;DHT22;3155;49.940;8.450;2022-09-09T02:38:51;13.40;99.90
6244;DHT22;3155;49.940;8.450;2022-09-09T02:41:24;13.50;99.90
6244;DHT22;3155;49.940;8.450;2022-09-09T02:43:52;13.50;99.90
6244;DHT22;3155;49.940;8.450;2022-09-09T02:46:32;13.60;99.90
6244;DHT22;3155;49.940;8.450;2022-09-09T02:49:08;13.60;99.90
6244;DHT22;3155;49.940;8.450;2022-09-09T02:54:33;13.50;99.90
6244;DHT22;3155;49.940;8.450;2022-09-09T02:57:14;13.40;99.90
6244;DHT22;3155;49.940;8.450;2022-09-09T02:59:46;13.40;99.90
6244;DHT22;3155;49.940;8.450;2022-09-09T03:02:13;13.40;99.90
6244;DHT22;3155;49.940;8.450;2022-09-09T03:04:40;13.40;99.90
6244;DHT22;3155;49.940;8.450;2022-09-09T03:07:11;13.30;99.90
6244;DHT22;3155;49.940;8.450;2022-09-09T03:09:38;13.30;99.90
6244;DHT22;3155;49.940;8.450;2022-09-09T03:12:08;13.20;99.90
6244;DHT22;3155;49.940;8.450;2022-09-09T03:14:34;13.20;99.90
6244;DHT22;3155;49.940;8.450;2022-09-09T03:17:01;13.20;99.90
6244;DHT22;3155;49.940;8.450;2022-09-09T03:19:28;13.20;99.90
6244;DHT22;3155;49.940;8.450;2022-09-09T03:21:56;13.10;99.90
6244;DHT22;3155;49.940;8.450;2022-09-09T03:24:24;13.10;99.90
6244;DHT22;3155;49.940;8.450;2022-09-09T03:26:51;13.10;99.90
6244;DHT22;3155;49.940;8.450;2022-09-09T03:29:18;13.10;99.90
6244;DHT22;3155;49.940;8.450;2022-09-09T03:31:45;13.20;99.90
6244;DHT22;3155;49.940;8.450;2022-09-09T03:34:15;13.30;99.90
6244;DHT22;3155;49.940;8.450;2022-09-09T03:36:45;13.40;99.90
6244;DHT22;3155;49.940;8.450;2022-09-09T03:39:12;13.60;99.90
6244;DHT22;3155;49.940;8.450;2022-09-09T03:41:40;13.70;99.90
6244;DHT22;3155;49.940;8.450;2022-09-09T03:44:07;13.80;99.90
6244;DHT22;3155;49.940;8.450;2022-09-09T03:46:34;13.90;99.90
6244;DHT22;3155;49.940;8.450;2022-09-09T03:49:00;14.00;99.90
6244;DHT22;3155;49.940;8.450;2022-09-09T03:51:28;14.00;99.90
6244;DHT22;3155;49.940;8.450;2022-09-09T03:53:54;14.00;99.90
6244;DHT22;3155;49.940;8.450;2022-09-09T03:56:26;14.00;99.90
6244;DHT22;3155;49.940;8.450;2022-09-09T03:58:53;14.00;99.90
6244;DHT22;3155;49.940;8.450;2022-09-09T04:01:20;13.90;99.90
6244;DHT22;3155;49.940;8.450;2022-09-09T04:03:47;13.90;99.90
6244;DHT22;3155;49.940;8.450;2022-09-09T04:06:14;13.80;99.90
6244;DHT22;3155;49.940;8.450;2022-09-09T04:08:41;13.70;99.90
6244;DHT22;3155;49.940;8.450;2022-09-09T04:11:08;13.70;99.90
6244;DHT22;3155;49.940;8.450;2022-09-09T04:13:37;13.60;99.90
6244;DHT22;3155;49.940;8.450;2022-09-09T04:16:05;13.60;99.90
6244;DHT22;3155;49.940;8.450;2022-09-09T04:18:32;13.50;99.90
6244;DHT22;3155;49.940;8.450;2022-09-09T04:20:59;13.60;99.90
6244;DHT22;3155;49.940;8.450;2022-09-09T04:23:27;13.60;99.90
6244;DHT22;3155;49.940;8.450;2022-09-09T04:25:58;13.70;99.90
6244;DHT22;3155;49.940;8.450;2022-09-09T04:28:28;13.70;99.90
6244;DHT22;3155;49.940;8.450;2022-09-09T04:30:55;13.70;99.90
6244;DHT22;3155;49.940;8.450;2022-09-09T04:33:24;13.80;99.90
6244;DHT22;3155;49.940;8.450;2022-09-09T04:35:53;13.80;99.90
6244;DHT22;3155;49.940;8.450;2022-09-09T04:38:20;13.80;99.90
6244;DHT22;3155;49.940;8.450;2022-09-09T04:40:50;13.80;99.90
6244;DHT22;3155;49.940;8.450;2022-09-09T04:43:21;13.70;99.90
6244;DHT22;3155;49.940;8.450;2022-09-09T04:45:51;13.60;99.90
6244;DHT22;3155;49.940;8.450;2022-09-09T04:48:19;13.60;99.90
6244;DHT22;3155;49.940;8.450;2022-09-09T04:51:05;13.50;99.90
6244;DHT22;3155;49.940;8.450;2022-09-09T04:53:32;13.40;99.90
6244;DHT22;3155;49.940;8.450;2022-09-09T04:56:05;13.30;99.90
6244;DHT22;3155;49.940;8.450;2022-09-09T04:58:35;13.20;99.90
6244;DHT22;3155;49.940;8.450;2022-09-09T05:01:09;13.20;99.90
6244;DHT22;3155;49.940;8.450;2022-09-09T05:03:36;13.10;99.90
6244;DHT22;3155;49.940;8.450;2022-09-09T05:06:09;13.00;99.90
6244;DHT22;3155;49.940;8.450;2022-09-09T05:08:40;13.00;99.90
6244;DHT22;3155;49.940;8.450;2022-09-09T05:11:34;13.00;99.90
6244;DHT22;3155;49.940;8.450;2022-09-09T05:14:03;13.10;99.90
6244;DHT22;3155;49.940;8.450;2022-09-09T05:16:30;13.20;99.90
6244;DHT22;3155;49.940;8.450;2022-09-09T05:18:57;13.30;99.90
6244;DHT22;3155;49.940;8.450;2022-09-09T05:21:29;13.30;99.90
6244;DHT22;3155;49.940;8.450;2022-09-09T05:23:57;13.40;99.90
6244;DHT22;3155;49.940;8.450;2022-09-09T05:26:24;13.50;99.90
6244;DHT22;3155;49.940;8.450;2022-09-09T05:28:51;13.70;99.90
6244;DHT22;3155;49.940;8.450;2022-09-09T05:31:21;13.80;99.90
6244;DHT22;3155;49.940;8.450;2022-09-09T05:33:51;13.80;99.90
6244;DHT22;3155;49.940;8.450;2022-09-09T05:36:21;13.90;99.90
6244;DHT22;3155;49.940;8.450;2022-09-09T05:38:48;13.90;99.90
6244;DHT22;3155;49.940;8.450;2022-09-09T05:41:23;13.90;99.90
6244;DHT22;3155;49.940;8.450;2022-09-09T05:43:53;13.90;99.90
6244;DHT22;3155;49.940;8.450;2022-09-09T05:46:21;14.00;99.90
6244;DHT22;3155;49.940;8.450;2022-09-09T05:48:49;14.10;99.90
6244;DHT22;3155;49.940;8.450;2022-09-09T05:51:23;14.20;99.90
6244;DHT22;3155;49.940;8.450;2022-09-09T05:53:50;14.20;99.90
6244;DHT22;3155;49.940;8.450;2022-09-09T05:56:23;14.20;99.90
6244;DHT22;3155;49.940;8.450;2022-09-09T05:58:52;14.20;99.90
6244;DHT22;3155;49.940;8.450;2022-09-09T06:01:23;14.30;99.90
6244;DHT22;3155;49.940;8.450;2022-09-09T06:03:50;14.60;99.90
6244;DHT22;3155;49.940;8.450;2022-09-09T06:06:31;15.10;99.90
6244;DHT22;3155;49.940;8.450;2022-09-09T06:08:59;15.80;99.90
6244;DHT22;3155;49.940;8.450;2022-09-09T06:11:30;16.30;99.90
6244;DHT22;3155;49.940;8.450;2022-09-09T06:13:58;16.30;99.90
6244;DHT22;3155;49.940;8.450;2022-09-09T06:16:28;16.20;99.90
6244;DHT22;3155;49.940;8.450;2022-09-09T06:18:56;16.20;99.90
6244;DHT22;3155;49.940;8.450;2022-09-09T06:21:35;16.00;99.90
6244;DHT22;3155;49.940;8.450;2022-09-09T06:24:05;15.90;99.90
6244;DHT22;3155;49.940;8.450;2022-09-09T06:26:39;15.90;99.90
6244;DHT22;3155;49.940;8.450;2022-09-09T06:29:11;15.80;99.90
6244;DHT22;3155;49.940;8.450;2022-09-09T06:31:40;15.80;99.90
6244;DHT22;3155;49.940;8.450;2022-09-09T06:34:08;15.80;99.90
6244;DHT22;3155;49.940;8.450;2022-09-09T06:36:37;16.00;99.90
6244;DHT22;3155;49.940;8.450;2022-09-09T06:39:05;16.10;99.90
6244;DHT22;3155;49.940;8.450;2022-09-09T06:41:37;16.20;99.90
6244;DHT22;3155;49.940;8.450;2022-09-09T06:44:04;16.40;99.90
6244;DHT22;3155;49.940;8.450;2022-09-09T06:46:33;16.60;99.90
6244;DHT22;3155;49.940;8.450;2022-09-09T06:49:02;16.80;99.90
6244;DHT22;3155;49.940;8.450;2022-09-09T06:51:31;16.90;99.90
6244;DHT22;3155;49.940;8.450;2022-09-09T06:53:59;16.90;99.90
6244;DHT22;3155;49.940;8.450;2022-09-09T06:56:31;16.70;99.90
6244;DHT22;3155;49.940;8.450;2022-09-09T06:59:03;16.60;99.90
6244;DHT22;3155;49.940;8.450;2022-09-09T07:01:35;16.40;99.90
6244;DHT22;3155;49.940;8.450;2022-09-09T07:04:03;16.20;99.90
6244;DHT22;3155;49.940;8.450;2022-09-09T07:06:36;16.10;99.90
6244;DHT22;3155;49.940;8.450;2022-09-09T07:09:05;16.10;99.90
6244;DHT22;3155;49.940;8.450;2022-09-09T07:11:40;16.20;99.90
6244;DHT22;3155;49.940;8.450;2022-09-09T07:14:08;16.30;99.90
6244;DHT22;3155;49.940;8.450;2022-09-09T07:16:35;16.40;99.90
6244;DHT22;3155;49.940;8.450;2022-09-09T07:19:04;16.50;99.90
6244;DHT22;3155;49.940;8.450;2022-09-09T07:21:32;16.60;99.90
6244;DHT22;3155;49.940;8.450;2022-09-09T07:24:00;16.60;99.90
6244;DHT22;3155;49.940;8.450;2022-09-09T07:26:30;16.70;99.90
6244;DHT22;3155;49.940;8.450;2022-09-09T07:28:57;16.80;99.90
6244;DHT22;3155;49.940;8.450;2022-09-09T07:31:29;17.00;99.90
6244;DHT22;3155;49.940;8.450;2022-09-09T07:34:00;17.30;99.90
6244;DHT22;3155;49.940;8.450;2022-09-09T07:36:32;17.40;99.90
6244;DHT22;3155;49.940;8.450;2022-09-09T07:39:03;17.40;99.90
6244;DHT22;3155;49.940;8.450;2022-09-09T07:41:33;17.40;99.90
6244;DHT22;3155;49.940;8.450;2022-09-09T07:44:11;17.30;99.90
6244;DHT22;3155;49.940;8.450;2022-09-09T07:46:39;17.40;99.90
6244;DHT22;3155;49.940;8.450;2022-09-09T07:49:06;17.60;99.90
6244;DHT22;3155;49.940;8.450;2022-09-09T07:51:36;17.50;99.90
6244;DHT22;3155;49.940;8.450;2022-09-09T07:54:06;17.40;99.90
6244;DHT22;3155;49.940;8.450;2022-09-09T07:56:33;17.40;99.90
6244;DHT22;3155;49.940;8.450;2022-09-09T07:59:03;17.40;99.90
6244;DHT22;3155;49.940;8.450;2022-09-09T08:01:38;17.60;99.90
6244;DHT22;3155;49.940;8.450;2022-09-09T08:04:08;17.90;99.90
6244;DHT22;3155;49.940;8.450;2022-09-09T08:06:38;18.30;99.90
6244;DHT22;3155;49.940;8.450;2022-09-09T08:09:07;18.60;99.90
6244;DHT22;3155;49.940;8.450;2022-09-09T08:11:34;19.10;99.90
6244;DHT22;3155;49.940;8.450;2022-09-09T08:14:08;18.90;99.90
6244;DHT22;3155;49.940;8.450;2022-09-09T08:16:38;19.00;99.90
6244;DHT22;3155;49.940;8.450;2022-09-09T08:19:05;19.20;99.90
6244;DHT22;3155;49.940;8.450;2022-09-09T08:21:35;19.60;99.90
6244;DHT22;3155;49.940;8.450;2022-09-09T08:24:06;19.70;99.90
6244;DHT22;3155;49.940;8.450;2022-09-09T08:26:37;19.60;99.90
6244;DHT22;3155;49.940;8.450;2022-09-09T08:29:06;19.70;99.90
6244;DHT22;3155;49.940;8.450;2022-09-09T08:31:42;19.70;99.90
6244;DHT22;3155;49.940;8.450;2022-09-09T08:34:09;19.60;99.90
6244;DHT22;3155;49.940;8.450;2022-09-09T08:36:39;19.70;99.90
6244;DHT22;3155;49.940;8.450;2022-09-09T08:39:07;19.70;99.90
6244;DHT22;3155;49.940;8.450;2022-09-09T08:47:20;19.20;99.90
6244;DHT22;3155;49.940;8.450;2022-09-09T08:53:02;19.30;99.90
6244;DHT22;3155;49.940;8.450;2022-09-09T08:55:43;19.10;99.90
6244;DHT22;3155;49.940;8.450;2022-09-09T08:58:20;19.30;99.90
6244;DHT22;3155;49.940;8.450;2022-09-09T09:03:56;19.40;99.90
6244;DHT22;3155;49.940;8.450;2022-09-09T09:06:39;19.60;99.90
6244;DHT22;3155;49.940;8.450;2022-09-09T09:09:27;19.10;99.90
6244;DHT22;3155;49.940;8.450;2022-09-09T09:11:58;19.00;99.90
6244;DHT22;3155;49.940;8.450;2022-09-09T09:14:33;18.90;99.90
6244;DHT22;3155;49.940;8.450;2022-09-09T09:19:35;19.00;99.90
6244;DHT22;3155;49.940;8.450;2022-09-09T09:22:20;19.10;99.90
6244;DHT22;3155;49.940;8.450;2022-09-09T09:24:54;19.00;99.90
6244;DHT22;3155;49.940;8.450;2022-09-09T09:27:32;18.90;99.90
6244;DHT22;3155;49.940;8.450;2022-09-09T09:32:59;19.10;99.90
6244;DHT22;3155;49.940;8.450;2022-09-09T09:35:28;19.30;99.90
6244;DHT22;3155;49.940;8.450;2022-09-09T09:37:54;19.60;99.90
6244;DHT22;3155;49.940;8.450;2022-09-09T09:43:29;19.80;99.90
6244;DHT22;3155;49.940;8.450;2022-09-09T11:35:17;26.30;99.90
6244;DHT22;3155;49.940;8.450;2022-09-09T11:38:17;25.70;99.90
6244;DHT22;3155;49.940;8.450;2022-09-09T11:40:55;24.60;99.90
6244;DHT22;3155;49.940;8.450;2022-09-09T11:56:34;24.10;99.90
6244;DHT22;3155;49.940;8.450;2022-09-09T11:59:18;22.50;99.90
6244;DHT22;3155;49.940;8.450;2022-09-09T12:01:46;22.30;99.90
6244;DHT22;3155;49.940;8.450;2022-09-09T12:04:26;22.00;99.90
6244;DHT22;3155;49.940;8.450;2022-09-09T12:09:54;21.80;99.90
6244;DHT22;3155;49.940;8.450;2022-09-09T12:12:32;21.70;99.90
6244;DHT22;3155;49.940;8.450;2022-09-09T12:51:07;21.50;99.90
6244;DHT22;3155;49.940;8.450;2022-09-09T12:53:44;18.90;99.90
6244;DHT22;3155;49.940;8.450;2022-09-09T12:58:55;18.60;99.90
6244;DHT22;3155;49.940;8.450;2022-09-09T14:02:36;18.10;99.90
6244;DHT22;3155;49.940;8.450;2022-09-09T14:14:54;20.90;99.90
6244;DHT22;3155;49.940;8.450;2022-09-09T14:17:21;22.00;99.90
6244;DHT22;3155;49.940;8.450;2022-09-09T14:19:51;22.00;99.90
6244;DHT22;3155;49.940;8.450;2022-09-09T14:22:18;21.60;99.90
6244;DHT22;3155;49.940;8.450;2022-09-09T14:27:13;20.90;99.90
6244;DHT22;3155;49.940;8.450;2022-09-09T14:29:39;20.50;99.90
6244;DHT22;3155;49.940;8.450;2022-09-09T14:32:06;20.30;99.90
6244;DHT22;3155;49.940;8.450;2022-09-09T14:34:38;20.20;99.90
6244;DHT22;3155;49.940;8.450;2022-09-09T14:37:05;20.00;99.90
6244;DHT22;3155;49.940;8.450;2022-09-09T14:39:31;19.90;99.90
6244;DHT22;3155;49.940;8.450;2022-09-09T14:46:52;19.80;99.90
6244;DHT22;3155;49.940;8.450;2022-09-09T14:49:20;19.10;99.90
6244;DHT22;3155;49.940;8.450;2022-09-09T14:51:47;18.90;99.90
6244;DHT22;3155;49.940;8.450;2022-09-09T14:54:14;18.70;99.90
6244;DHT22;3155;49.940;8.450;2022-09-09T17:23:14;18.60;99.90
6244;DHT22;3155;49.940;8.450;2022-09-09T19:51:50;16.50;99.90
6244;DHT22;3155;49.940;8.450;2022-09-09T19:54:17;13.90;99.90
6244;DHT22;3155;49.940;8.450;2022-09-09T19:56:43;13.70;99.90
6244;DHT22;3155;49.940;8.450;2022-09-09T19:59:11;13.70;99.90
6244;DHT22;3155;49.940;8.450;2022-09-09T20:01:42;13.70;99.90
6244;DHT22;3155;49.940;8.450;2022-09-09T20:04:11;13.60;99.90
6244;DHT22;3155;49.940;8.450;2022-09-09T20:06:40;13.60;99.90
6244;DHT22;3155;49.940;8.450;2022-09-09T20:09:11;13.60;99.90
6244;DHT22;3155;49.940;8.450;2022-09-09T20:11:40;13.50;99.90
6244;DHT22;3155;49.940;8.450;2022-09-09T20:14:08;13.50;99.90
6244;DHT22;3155;49.940;8.450;2022-09-09T20:16:35;13.50;99.90
6244;DHT22;3155;49.940;8.450;2022-09-09T20:19:04;13.50;99.90
6244;DHT22;3155;49.940;8.450;2022-09-09T20:21:37;13.50;99.90
6244;DHT22;3155;49.940;8.450;2022-09-09T20:24:13;13.50;99.90
6244;DHT22;3155;49.940;8.450;2022-09-09T20:26:40;13.40;99.90
6244;DHT22;3155;49.940;8.450;2022-09-09T20:29:10;13.30;99.90
6244;DHT22;3155;49.940;8.450;2022-09-09T20:31:42;13.30;99.90
6244;DHT22;3155;49.940;8.450;2022-09-09T20:34:12;13.20;99.90
6244;DHT22;3155;49.940;8.450;2022-09-09T20:36:40;13.20;99.90
6244;DHT22;3155;49.940;8.450;2022-09-09T20:41:39;13.10;99.90
6244;DHT22;3155;49.940;8.450;2022-09-09T20:44:13;13.10;99.90
6244;DHT22;3155;49.940;8.450;2022-09-09T20:46:46;13.00;99.90
6244;DHT22;3155;49.940;8.450;2022-09-09T20:49:17;13.00;99.90
6244;DHT22;3155;49.940;8.450;2022-09-09T20:51:46;13.10;99.90
6244;DHT22;3155;49.940;8.450;2022-09-09T20:54:19;13.10;99.90
6244;DHT22;3155;49.940;8.450;2022-09-09T20:56:47;13.00;99.90
6244;DHT22;3155;49.940;8.450;2022-09-09T20:59:17;13.00;99.90
6244;DHT22;3155;49.940;8.450;2022-09-09T21:01:44;13.00;99.90
6244;DHT22;3155;49.940;8.450;2022-09-09T21:04:15;13.00;99.90
6244;DHT22;3155;49.940;8.450;2022-09-09T21:06:42;13.00;99.90
6244;DHT22;3155;49.940;8.450;2022-09-09T21:09:12;13.00;99.90
6244;DHT22;3155;49.940;8.450;2022-09-09T21:11:39;13.00;99.90
6244;DHT22;3155;49.940;8.450;2022-09-09T21:14:05;13.00;99.90
6244;DHT22;3155;49.940;8.450;2022-09-09T21:16:32;13.00;99.90
6244;DHT22;3155;49.940;8.450;2022-09-09T21:18:59;13.00;99.90
6244;DHT22;3155;49.940;8.450;2022-09-09T21:21:26;13.10;99.90
6244;DHT22;3155;49.940;8.450;2022-09-09T21:23:56;13.00;99.90
6244;DHT22;3155;49.940;8.450;2022-09-09T21:26:24;13.00;99.90
6244;DHT22;3155;49.940;8.450;2022-09-09T21:28:53;12.90;99.90
6244;DHT22;3155;49.940;8.450;2022-09-09T21:31:21;12.90;99.90
6244;DHT22;3155;49.940;8.450;2022-09-09T21:33:55;12.90;99.90
6244;DHT22;3155;49.940;8.450;2022-09-09T21:36:22;12.90;99.90
6244;DHT22;3155;49.940;8.450;2022-09-09T21:38:49;12.90;99.90
6244;DHT22;3155;49.940;8.450;2022-09-09T21:41:19;12.80;99.90
6244;DHT22;3155;49.940;8.450;2022-09-09T21:43:51;12.80;99.90
6244;DHT22;3155;49.940;8.450;2022-09-09T21:46:18;12.80;99.90
6244;DHT22;3155;49.940;8.450;2022-09-09T21:48:45;12.80;99.90
6244;DHT22;3155;49.940;8.450;2022-09-09T21:51:15;12.80;99.90
6244;DHT22;3155;49.940;8.450;2022-09-09T21:53:42;12.80;99.90
6244;DHT22;3155;49.940;8.450;2022-09-09T21:56:11;12.80;99.90
6244;DHT22;3155;49.940;8.450;2022-09-09T21:58:38;12.80;99.90
6244;DHT22;3155;49.940;8.450;2022-09-09T22:01:15;12.80;99.90
6244;DHT22;3155;49.940;8.450;2022-09-09T22:03:42;12.80;99.90
6244;DHT22;3155;49.940;8.450;2022-09-09T22:06:15;12.80;99.90
6244;DHT22;3155;49.940;8.450;2022-09-09T22:08:42;12.70;99.90
6244;DHT22;3155;49.940;8.450;2022-09-09T22:11:12;12.80;99.90
6244;DHT22;3155;49.940;8.450;2022-09-09T22:13:40;12.70;99.90
6244;DHT22;3155;49.940;8.450;2022-09-09T22:16:09;12.60;99.90
6244;DHT22;3155;49.940;8.450;2022-09-09T22:18:37;12.60;99.90
6244;DHT22;3155;49.940;8.450;2022-09-09T22:21:13;12.50;99.90
6244;DHT22;3155;49.940;8.450;2022-09-09T22:23:40;12.50;99.90
6244;DHT22;3155;49.940;8.450;2022-09-09T22:26:08;12.40;99.90
6244;DHT22;3155;49.940;8.450;2022-09-09T22:28:35;12.30;99.90
6244;DHT22;3155;49.940;8.450;2022-09-09T22:31:06;12.30;99.90
6244;DHT22;3155;49.940;8.450;2022-09-09T22:33:33;12.30;99.90
6244;DHT22;3155;49.940;8.450;2022-09-09T22:36:00;12.30;99.90
6244;DHT22;3155;49.940;8.450;2022-09-09T22:38:28;12.30;99.90
6244;DHT22;3155;49.940;8.450;2022-09-09T22:40:54;12.30;99.90
6244;DHT22;3155;49.940;8.450;2022-09-09T22:43:21;12.30;99.90
6244;DHT22;3155;49.940;8.450;2022-09-09T22:45:51;12.30;99.90
6244;DHT22;3155;49.940;8.450;2022-09-09T22:48:17;12.30;99.90
6244;DHT22;3155;49.940;8.450;2022-09-09T22:50:45;12.30;99.90
6244;DHT22;3155;49.940;8.450;2022-09-09T22:53:13;12.20;99.90
6244;DHT22;3155;49.940;8.450;2022-09-09T22:55:41;12.20;99.90
6244;DHT22;3155;49.940;8.450;2022-09-09T22:58:08;12.10;99.90
6244;DHT22;3155;49.940;8.450;2022-09-09T23:00:35;12.10;99.90
6244;DHT22;3155;49.940;8.450;2022-09-09T23:03:05;12.00;99.90
6244;DHT22;3155;49.940;8.450;2022-09-09T23:05:33;12.00;99.90
6244;DHT22;3155;49.940;8.450;2022-09-09T23:08:01;12.10;99.90
6244;DHT22;3155;49.940;8.450;2022-09-09T23:10:28;12.20;99.90
6244;DHT22;3155;49.940;8.450;2022-09-09T23:12:57;12.30;99.90
6244;DHT22;3155;49.940;8.450;2022-09-09T23:15:24;12.40;99.90
6244;DHT22;3155;49.940;8.450;2022-09-09T23:17:51;12.40;99.90
6244;DHT22;3155;49.940;8.450;2022-09-09T23:20:21;12.40;99.90
6244;DHT22;3155;49.940;8.450;2022-09-09T23:22:47;12.40;99.90
6244;DHT22;3155;49.940;8.450;2022-09-09T23:25:14;12.40;99.90
6244;DHT22;3155;49.940;8.450;2022-09-09T23:27:41;12.40;99.90
6244;DHT22;3155;49.940;8.450;2022-09-09T23:30:08;12.40;99.90
6244;DHT22;3155;49.940;8.450;2022-09-09T23:32:39;12.40;99.90
6244;DHT22;3155;49.940;8.450;2022-09-09T23:35:06;12.40;99.90
6244;DHT22;3155;49.940;8.450;2022-09-09T23:37:33;12.50;99.90
6244;DHT22;3155;49.940;8.450;2022-09-09T23:40:00;12.50;99.90
6244;DHT22;3155;49.940;8.450;2022-09-09T23:42:27;12.60;99.90
6244;DHT22;3155;49.940;8.450;2022-09-09T23:44:58;12.60;99.90
6244;DHT22;3155;49.940;8.450;2022-09-09T23:47:25;12.60;99.90
6244;DHT22;3155;49.940;8.450;2022-09-09T23:49:53;12.60;99.90
6244;DHT22;3155;49.940;8.450;2022-09-09T23:52:19;12.60;99.90
6244;DHT22;3155;49.940;8.450;2022-09-09T23:54:50;12.50;99.90
6244;DHT22;3155;49.940;8.450;2022-09-09T23:57:18;12.50;99.90
6244;DHT22;3155;49.940;8.450;2022-09-09T23:59:45;12.50;99.90
